sensor_id;sensor_type;location;lat;lon;timestamp;P1;durP1;ratioP1;P2;durP2;ratioP2
6791;SDS011;3433;48.730;9.108;2022-12-20T00:02:42;14.00;;;8.60;;
6791;SDS011;3433;48.730;9.108;2022-12-20T00:05:31;13.93;;;8.00;;
6791;SDS011;3433;48.730;9.108;2022-12-20T00:08:22;11.30;;;7.90;;
6791;SDS011;3433;48.730;9.108;2022-12-20T00:11:09;11.50;;;7.97;;
6791;SDS011;3433;48.730;9.108;2022-12-20T00:13:57;9.67;;;7.37;;
6791;SDS011;3433;48.730;9.108;2022-12-20T00:16:44;11.97;;;7.60;;
6791;SDS011;3433;48.730;9.108;2022-12-20T00:19:32;11.47;;;7.80;;
6791;SDS011;3433;48.730;9.108;2022-12-20T00:22:20;12.63;;;8.07;;
6791;SDS011;3433;48.730;9.108;2022-12-20T00:25:08;12.20;;;7.67;;
6791;SDS011;3433;48.730;9.108;2022-12-20T00:27:55;13.63;;;7.73;;
6791;SDS011;3433;48.730;9.108;2022-12-20T00:30:42;9.53;;;7.13;;
6791;SDS011;3433;48.730;9.108;2022-12-20T00:33:30;10.83;;;7.37;;
6791;SDS011;3433;48.730;9.108;2022-12-20T00:36:18;11.97;;;7.63;;
6791;SDS011;3433;48.730;9.108;2022-12-20T00:39:08;14.33;;;7.90;;
6791;SDS011;3433;48.730;9.108;2022-12-20T00:41:55;12.70;;;7.77;;
6791;SDS011;3433;48.730;9.108;2022-12-20T00:44:43;11.33;;;7.43;;
6791;SDS011;3433;48.730;9.108;2022-12-20T00:47:30;14.83;;;8.40;;
6791;SDS011;3433;48.730;9.108;2022-12-20T00:50:17;17.73;;;11.07;;
6791;SDS011;3433;48.730;9.108;2022-12-20T00:53:05;14.17;;;8.23;;
6791;SDS011;3433;48.730;9.108;2022-12-20T00:55:55;16.07;;;9.10;;
6791;SDS011;3433;48.730;9.108;2022-12-20T00:58:43;16.13;;;9.80;;
6791;SDS011;3433;48.730;9.108;2022-12-20T01:01:31;15.23;;;9.33;;
6791;SDS011;3433;48.730;9.108;2022-12-20T01:04:19;13.13;;;9.17;;
6791;SDS011;3433;48.730;9.108;2022-12-20T01:07:07;15.43;;;10.20;;
6791;SDS011;3433;48.730;9.108;2022-12-20T01:09:55;14.27;;;10.23;;
6791;SDS011;3433;48.730;9.108;2022-12-20T01:12:44;12.43;;;8.30;;
6791;SDS011;3433;48.730;9.108;2022-12-20T01:15:32;14.50;;;8.67;;
6791;SDS011;3433;48.730;9.108;2022-12-20T01:18:19;13.67;;;9.07;;
6791;SDS011;3433;48.730;9.108;2022-12-20T01:21:07;12.57;;;8.93;;
6791;SDS011;3433;48.730;9.108;2022-12-20T01:23:56;12.40;;;9.43;;
6791;SDS011;3433;48.730;9.108;2022-12-20T01:26:44;16.93;;;10.17;;
6791;SDS011;3433;48.730;9.108;2022-12-20T01:29:33;17.53;;;10.70;;
6791;SDS011;3433;48.730;9.108;2022-12-20T01:32:21;17.27;;;10.27;;
6791;SDS011;3433;48.730;9.108;2022-12-20T01:35:08;13.50;;;9.50;;
6791;SDS011;3433;48.730;9.108;2022-12-20T01:37:55;16.97;;;10.10;;
6791;SDS011;3433;48.730;9.108;2022-12-20T01:40:42;17.70;;;11.70;;
6791;SDS011;3433;48.730;9.108;2022-12-20T01:43:44;18.53;;;11.03;;
6791;SDS011;3433;48.730;9.108;2022-12-20T01:46:35;16.67;;;9.57;;
6791;SDS011;3433;48.730;9.108;2022-12-20T01:49:23;20.27;;;10.77;;
6791;SDS011;3433;48.730;9.108;2022-12-20T01:52:14;14.70;;;9.93;;
6791;SDS011;3433;48.730;9.108;2022-12-20T01:55:06;18.90;;;10.60;;
6791;SDS011;3433;48.730;9.108;2022-12-20T01:57:58;14.70;;;10.73;;
6791;SDS011;3433;48.730;9.108;2022-12-20T02:00:49;16.77;;;10.87;;
6791;SDS011;3433;48.730;9.108;2022-12-20T02:03:37;18.63;;;11.93;;
6791;SDS011;3433;48.730;9.108;2022-12-20T02:06:26;19.10;;;11.70;;
6791;SDS011;3433;48.730;9.108;2022-12-20T02:09:14;27.30;;;15.80;;
6791;SDS011;3433;48.730;9.108;2022-12-20T02:12:04;26.03;;;15.20;;
6791;SDS011;3433;48.730;9.108;2022-12-20T02:14:58;22.63;;;15.73;;
6791;SDS011;3433;48.730;9.108;2022-12-20T02:18:00;27.10;;;15.70;;
6791;SDS011;3433;48.730;9.108;2022-12-20T02:20:57;30.03;;;15.83;;
6791;SDS011;3433;48.730;9.108;2022-12-20T02:27:45;27.80;;;16.13;;
6791;SDS011;3433;48.730;9.108;2022-12-20T02:30:41;28.60;;;15.47;;
6791;SDS011;3433;48.730;9.108;2022-12-20T02:33:31;23.23;;;14.97;;
6791;SDS011;3433;48.730;9.108;2022-12-20T02:36:19;30.37;;;15.03;;
6791;SDS011;3433;48.730;9.108;2022-12-20T02:39:06;22.23;;;14.77;;
6791;SDS011;3433;48.730;9.108;2022-12-20T02:41:56;21.63;;;14.23;;
6791;SDS011;3433;48.730;9.108;2022-12-20T02:44:48;24.57;;;16.90;;
6791;SDS011;3433;48.730;9.108;2022-12-20T02:47:57;25.40;;;15.53;;
6791;SDS011;3433;48.730;9.108;2022-12-20T02:50:48;24.00;;;15.43;;
6791;SDS011;3433;48.730;9.108;2022-12-20T02:53:38;23.30;;;15.70;;
6791;SDS011;3433;48.730;9.108;2022-12-20T02:56:26;24.13;;;15.67;;
6791;SDS011;3433;48.730;9.108;2022-12-20T02:59:19;24.60;;;15.37;;
6791;SDS011;3433;48.730;9.108;2022-12-20T03:02:09;23.87;;;16.07;;
6791;SDS011;3433;48.730;9.108;2022-12-20T03:04:58;21.10;;;12.90;;
6791;SDS011;3433;48.730;9.108;2022-12-20T03:07:45;26.67;;;15.97;;
6791;SDS011;3433;48.730;9.108;2022-12-20T03:10:32;24.17;;;14.83;;
6791;SDS011;3433;48.730;9.108;2022-12-20T03:13:20;19.83;;;12.40;;
6791;SDS011;3433;48.730;9.108;2022-12-20T03:16:08;20.10;;;12.67;;
6791;SDS011;3433;48.730;9.108;2022-12-20T03:18:56;21.00;;;12.10;;
6791;SDS011;3433;48.730;9.108;2022-12-20T03:21:44;24.20;;;11.80;;
6791;SDS011;3433;48.730;9.108;2022-12-20T03:24:32;16.33;;;10.57;;
6791;SDS011;3433;48.730;9.108;2022-12-20T03:27:19;12.33;;;8.20;;
6791;SDS011;3433;48.730;9.108;2022-12-20T03:30:07;11.97;;;7.47;;
6791;SDS011;3433;48.730;9.108;2022-12-20T03:32:54;10.97;;;6.73;;
6791;SDS011;3433;48.730;9.108;2022-12-20T03:35:42;8.80;;;5.50;;
6791;SDS011;3433;48.730;9.108;2022-12-20T03:38:31;7.23;;;4.93;;
6791;SDS011;3433;48.730;9.108;2022-12-20T03:41:19;6.43;;;4.40;;
6791;SDS011;3433;48.730;9.108;2022-12-20T03:44:07;8.10;;;4.67;;
6791;SDS011;3433;48.730;9.108;2022-12-20T03:46:54;8.27;;;4.20;;
6791;SDS011;3433;48.730;9.108;2022-12-20T03:49:41;6.37;;;4.50;;
6791;SDS011;3433;48.730;9.108;2022-12-20T03:52:28;5.37;;;4.03;;
6791;SDS011;3433;48.730;9.108;2022-12-20T03:55:17;8.30;;;4.50;;
6791;SDS011;3433;48.730;9.108;2022-12-20T03:58:04;6.30;;;4.47;;
6791;SDS011;3433;48.730;9.108;2022-12-20T04:00:52;6.23;;;3.73;;
6791;SDS011;3433;48.730;9.108;2022-12-20T04:03:39;9.23;;;4.20;;
6791;SDS011;3433;48.730;9.108;2022-12-20T04:06:26;8.00;;;4.70;;
6791;SDS011;3433;48.730;9.108;2022-12-20T04:09:14;5.97;;;4.30;;
6791;SDS011;3433;48.730;9.108;2022-12-20T04:12:03;7.20;;;4.50;;
6791;SDS011;3433;48.730;9.108;2022-12-20T04:14:50;4.97;;;4.10;;
6791;SDS011;3433;48.730;9.108;2022-12-20T04:17:38;7.67;;;4.70;;
6791;SDS011;3433;48.730;9.108;2022-12-20T04:20:25;7.40;;;4.50;;
6791;SDS011;3433;48.730;9.108;2022-12-20T04:23:12;5.60;;;4.47;;
6791;SDS011;3433;48.730;9.108;2022-12-20T04:25:59;7.73;;;4.73;;
6791;SDS011;3433;48.730;9.108;2022-12-20T04:28:48;4.97;;;3.77;;
6791;SDS011;3433;48.730;9.108;2022-12-20T04:31:35;4.73;;;3.83;;
6791;SDS011;3433;48.730;9.108;2022-12-20T04:34:23;4.17;;;3.20;;
6791;SDS011;3433;48.730;9.108;2022-12-20T04:37:10;3.40;;;2.90;;
6791;SDS011;3433;48.730;9.108;2022-12-20T04:39:57;2.83;;;2.53;;
6791;SDS011;3433;48.730;9.108;2022-12-20T04:42:44;3.60;;;2.53;;
6791;SDS011;3433;48.730;9.108;2022-12-20T04:45:33;3.50;;;2.50;;
6791;SDS011;3433;48.730;9.108;2022-12-20T04:48:21;3.83;;;2.70;;
6791;SDS011;3433;48.730;9.108;2022-12-20T04:51:09;8.60;;;3.00;;
6791;SDS011;3433;48.730;9.108;2022-12-20T04:53:57;4.47;;;3.00;;
6791;SDS011;3433;48.730;9.108;2022-12-20T04:56:43;4.10;;;2.43;;
6791;SDS011;3433;48.730;9.108;2022-12-20T04:59:30;6.23;;;3.93;;
6791;SDS011;3433;48.730;9.108;2022-12-20T05:02:19;4.27;;;3.13;;
6791;SDS011;3433;48.730;9.108;2022-12-20T05:05:06;7.43;;;3.20;;
6791;SDS011;3433;48.730;9.108;2022-12-20T05:07:54;5.00;;;3.60;;
6791;SDS011;3433;48.730;9.108;2022-12-20T05:10:41;4.17;;;2.93;;
6791;SDS011;3433;48.730;9.108;2022-12-20T05:13:29;4.50;;;3.40;;
6791;SDS011;3433;48.730;9.108;2022-12-20T05:16:16;5.80;;;3.53;;
6791;SDS011;3433;48.730;9.108;2022-12-20T05:19:05;6.57;;;3.97;;
6791;SDS011;3433;48.730;9.108;2022-12-20T05:21:52;4.80;;;3.60;;
6791;SDS011;3433;48.730;9.108;2022-12-20T05:24:57;6.17;;;4.00;;
6791;SDS011;3433;48.730;9.108;2022-12-20T05:28:01;8.87;;;3.20;;
6791;SDS011;3433;48.730;9.108;2022-12-20T05:30:49;4.80;;;3.50;;
6791;SDS011;3433;48.730;9.108;2022-12-20T05:33:36;6.53;;;3.80;;
6791;SDS011;3433;48.730;9.108;2022-12-20T05:36:25;5.00;;;3.73;;
6791;SDS011;3433;48.730;9.108;2022-12-20T05:39:12;4.70;;;3.70;;
6791;SDS011;3433;48.730;9.108;2022-12-20T05:41:59;4.23;;;3.70;;
6791;SDS011;3433;48.730;9.108;2022-12-20T05:44:46;6.17;;;3.83;;
6791;SDS011;3433;48.730;9.108;2022-12-20T05:47:33;3.77;;;3.20;;
6791;SDS011;3433;48.730;9.108;2022-12-20T05:50:21;4.67;;;3.30;;
6791;SDS011;3433;48.730;9.108;2022-12-20T05:53:09;5.10;;;3.60;;
6791;SDS011;3433;48.730;9.108;2022-12-20T05:55:57;3.87;;;3.40;;
6791;SDS011;3433;48.730;9.108;2022-12-20T05:58:45;3.13;;;2.83;;
6791;SDS011;3433;48.730;9.108;2022-12-20T06:01:32;6.80;;;3.50;;
6791;SDS011;3433;48.730;9.108;2022-12-20T06:04:20;7.13;;;3.43;;
6791;SDS011;3433;48.730;9.108;2022-12-20T06:07:07;6.53;;;3.83;;
6791;SDS011;3433;48.730;9.108;2022-12-20T06:09:56;5.30;;;3.70;;
6791;SDS011;3433;48.730;9.108;2022-12-20T06:12:43;4.70;;;3.57;;
6791;SDS011;3433;48.730;9.108;2022-12-20T06:15:30;5.53;;;4.00;;
6791;SDS011;3433;48.730;9.108;2022-12-20T06:18:17;4.70;;;3.80;;
6791;SDS011;3433;48.730;9.108;2022-12-20T06:21:05;4.17;;;3.77;;
6791;SDS011;3433;48.730;9.108;2022-12-20T06:23:52;6.77;;;4.07;;
6791;SDS011;3433;48.730;9.108;2022-12-20T06:26:41;8.00;;;4.00;;
6791;SDS011;3433;48.730;9.108;2022-12-20T06:29:28;7.37;;;4.33;;
6791;SDS011;3433;48.730;9.108;2022-12-20T06:32:15;4.67;;;3.53;;
6791;SDS011;3433;48.730;9.108;2022-12-20T06:35:03;4.97;;;4.03;;
6791;SDS011;3433;48.730;9.108;2022-12-20T06:37:51;4.93;;;3.83;;
6791;SDS011;3433;48.730;9.108;2022-12-20T06:40:38;4.57;;;3.73;;
6791;SDS011;3433;48.730;9.108;2022-12-20T06:43:27;7.63;;;3.87;;
6791;SDS011;3433;48.730;9.108;2022-12-20T06:46:14;5.90;;;3.73;;
6791;SDS011;3433;48.730;9.108;2022-12-20T06:49:01;5.13;;;3.20;;
6791;SDS011;3433;48.730;9.108;2022-12-20T06:51:48;4.03;;;3.30;;
6791;SDS011;3433;48.730;9.108;2022-12-20T06:54:36;4.77;;;3.50;;
6791;SDS011;3433;48.730;9.108;2022-12-20T06:57:23;7.60;;;3.30;;
6791;SDS011;3433;48.730;9.108;2022-12-20T07:00:12;3.80;;;2.73;;
6791;SDS011;3433;48.730;9.108;2022-12-20T07:03:00;4.07;;;3.47;;
6791;SDS011;3433;48.730;9.108;2022-12-20T07:05:50;3.50;;;2.67;;
6791;SDS011;3433;48.730;9.108;2022-12-20T07:08:38;4.47;;;2.90;;
6791;SDS011;3433;48.730;9.108;2022-12-20T07:11:25;5.60;;;2.90;;
6791;SDS011;3433;48.730;9.108;2022-12-20T07:14:12;4.40;;;2.93;;
6791;SDS011;3433;48.730;9.108;2022-12-20T07:17:01;4.67;;;3.20;;
6791;SDS011;3433;48.730;9.108;2022-12-20T07:19:49;7.50;;;3.70;;
6791;SDS011;3433;48.730;9.108;2022-12-20T07:22:36;3.37;;;2.70;;
6791;SDS011;3433;48.730;9.108;2022-12-20T07:25:23;4.03;;;3.40;;
6791;SDS011;3433;48.730;9.108;2022-12-20T07:28:10;4.07;;;3.20;;
6791;SDS011;3433;48.730;9.108;2022-12-20T07:30:59;3.73;;;2.87;;
6791;SDS011;3433;48.730;9.108;2022-12-20T07:33:49;3.10;;;2.80;;
6791;SDS011;3433;48.730;9.108;2022-12-20T07:36:36;4.17;;;3.07;;
6791;SDS011;3433;48.730;9.108;2022-12-20T07:39:24;4.97;;;3.30;;
6791;SDS011;3433;48.730;9.108;2022-12-20T07:42:11;4.77;;;3.43;;
6791;SDS011;3433;48.730;9.108;2022-12-20T07:44:58;4.40;;;3.30;;
6791;SDS011;3433;48.730;9.108;2022-12-20T07:47:45;4.13;;;3.00;;
6791;SDS011;3433;48.730;9.108;2022-12-20T07:50:34;5.80;;;3.20;;
6791;SDS011;3433;48.730;9.108;2022-12-20T07:53:21;10.63;;;5.53;;
6791;SDS011;3433;48.730;9.108;2022-12-20T07:56:11;6.37;;;3.53;;
6791;SDS011;3433;48.730;9.108;2022-12-20T07:58:59;3.97;;;3.30;;
6791;SDS011;3433;48.730;9.108;2022-12-20T08:01:47;10.70;;;3.33;;
6791;SDS011;3433;48.730;9.108;2022-12-20T08:04:34;6.70;;;4.00;;
6791;SDS011;3433;48.730;9.108;2022-12-20T08:07:23;6.40;;;4.20;;
6791;SDS011;3433;48.730;9.108;2022-12-20T08:10:11;5.03;;;3.80;;
6791;SDS011;3433;48.730;9.108;2022-12-20T08:13:00;5.03;;;3.80;;
6791;SDS011;3433;48.730;9.108;2022-12-20T08:15:48;4.57;;;3.63;;
6791;SDS011;3433;48.730;9.108;2022-12-20T08:18:36;5.77;;;3.80;;
6791;SDS011;3433;48.730;9.108;2022-12-20T08:21:23;3.93;;;3.30;;
6791;SDS011;3433;48.730;9.108;2022-12-20T08:24:12;3.93;;;3.50;;
6791;SDS011;3433;48.730;9.108;2022-12-20T08:26:59;4.73;;;3.70;;
6791;SDS011;3433;48.730;9.108;2022-12-20T08:29:46;3.77;;;2.80;;
6791;SDS011;3433;48.730;9.108;2022-12-20T08:32:34;4.83;;;3.20;;
6791;SDS011;3433;48.730;9.108;2022-12-20T08:35:21;6.10;;;2.80;;
6791;SDS011;3433;48.730;9.108;2022-12-20T08:38:08;3.93;;;2.70;;
6791;SDS011;3433;48.730;9.108;2022-12-20T08:41:01;3.63;;;2.93;;
6791;SDS011;3433;48.730;9.108;2022-12-20T08:43:49;4.40;;;3.40;;
6791;SDS011;3433;48.730;9.108;2022-12-20T08:46:36;2.80;;;2.53;;
6791;SDS011;3433;48.730;9.108;2022-12-20T08:49:24;3.60;;;2.90;;
6791;SDS011;3433;48.730;9.108;2022-12-20T08:52:11;3.90;;;3.20;;
6791;SDS011;3433;48.730;9.108;2022-12-20T08:54:58;3.60;;;2.60;;
6791;SDS011;3433;48.730;9.108;2022-12-20T08:57:46;3.73;;;3.27;;
6791;SDS011;3433;48.730;9.108;2022-12-20T09:00:34;5.17;;;3.80;;
6791;SDS011;3433;48.730;9.108;2022-12-20T09:03:22;4.67;;;3.30;;
6791;SDS011;3433;48.730;9.108;2022-12-20T09:06:10;3.90;;;3.10;;
6791;SDS011;3433;48.730;9.108;2022-12-20T09:09:00;5.37;;;3.67;;
6791;SDS011;3433;48.730;9.108;2022-12-20T09:11:47;5.03;;;3.83;;
6791;SDS011;3433;48.730;9.108;2022-12-20T09:14:35;7.00;;;4.00;;
6791;SDS011;3433;48.730;9.108;2022-12-20T09:17:23;6.27;;;3.40;;
6791;SDS011;3433;48.730;9.108;2022-12-20T09:20:10;4.77;;;3.43;;
6791;SDS011;3433;48.730;9.108;2022-12-20T09:22:58;4.93;;;3.53;;
6791;SDS011;3433;48.730;9.108;2022-12-20T09:25:45;7.83;;;3.90;;
6791;SDS011;3433;48.730;9.108;2022-12-20T09:28:33;6.07;;;3.33;;
6791;SDS011;3433;48.730;9.108;2022-12-20T09:31:23;4.50;;;3.50;;
6791;SDS011;3433;48.730;9.108;2022-12-20T09:34:11;4.23;;;3.50;;
6791;SDS011;3433;48.730;9.108;2022-12-20T09:36:58;4.10;;;3.10;;
6791;SDS011;3433;48.730;9.108;2022-12-20T09:39:47;3.87;;;3.40;;
6791;SDS011;3433;48.730;9.108;2022-12-20T09:42:35;7.90;;;4.07;;
6791;SDS011;3433;48.730;9.108;2022-12-20T09:45:24;6.57;;;3.70;;
6791;SDS011;3433;48.730;9.108;2022-12-20T09:48:15;6.10;;;3.97;;
6791;SDS011;3433;48.730;9.108;2022-12-20T09:51:06;7.07;;;3.53;;
6791;SDS011;3433;48.730;9.108;2022-12-20T09:54:06;9.00;;;4.10;;
6791;SDS011;3433;48.730;9.108;2022-12-20T09:57:03;10.33;;;3.60;;
6791;SDS011;3433;48.730;9.108;2022-12-20T10:00:00;6.73;;;3.37;;
6791;SDS011;3433;48.730;9.108;2022-12-20T10:02:48;4.03;;;2.93;;
6791;SDS011;3433;48.730;9.108;2022-12-20T10:05:38;3.57;;;2.83;;
6791;SDS011;3433;48.730;9.108;2022-12-20T10:08:39;3.87;;;3.27;;
6791;SDS011;3433;48.730;9.108;2022-12-20T10:11:35;4.20;;;2.87;;
6791;SDS011;3433;48.730;9.108;2022-12-20T10:14:42;5.23;;;3.57;;
6791;SDS011;3433;48.730;9.108;2022-12-20T10:17:44;3.83;;;2.80;;
6791;SDS011;3433;48.730;9.108;2022-12-20T10:20:45;3.23;;;2.93;;
6791;SDS011;3433;48.730;9.108;2022-12-20T10:23:42;4.40;;;2.80;;
6791;SDS011;3433;48.730;9.108;2022-12-20T10:26:39;3.60;;;2.90;;
6791;SDS011;3433;48.730;9.108;2022-12-20T10:29:27;4.83;;;3.60;;
6791;SDS011;3433;48.730;9.108;2022-12-20T10:32:16;3.90;;;3.03;;
6791;SDS011;3433;48.730;9.108;2022-12-20T10:35:14;5.67;;;3.37;;
6791;SDS011;3433;48.730;9.108;2022-12-20T10:38:09;5.13;;;3.57;;
6791;SDS011;3433;48.730;9.108;2022-12-20T10:40:59;7.03;;;4.10;;
6791;SDS011;3433;48.730;9.108;2022-12-20T10:43:48;13.10;;;4.10;;
6791;SDS011;3433;48.730;9.108;2022-12-20T10:46:47;7.80;;;3.60;;
6791;SDS011;3433;48.730;9.108;2022-12-20T10:49:38;6.80;;;3.23;;
6791;SDS011;3433;48.730;9.108;2022-12-20T10:52:25;5.63;;;3.40;;
6791;SDS011;3433;48.730;9.108;2022-12-20T10:55:32;5.80;;;3.33;;
6791;SDS011;3433;48.730;9.108;2022-12-20T10:58:28;4.30;;;3.67;;
6791;SDS011;3433;48.730;9.108;2022-12-20T11:01:20;4.50;;;3.07;;
6791;SDS011;3433;48.730;9.108;2022-12-20T11:04:20;5.60;;;3.00;;
6791;SDS011;3433;48.730;9.108;2022-12-20T11:07:22;6.93;;;3.10;;
6791;SDS011;3433;48.730;9.108;2022-12-20T11:10:16;8.37;;;3.30;;
6791;SDS011;3433;48.730;9.108;2022-12-20T11:13:10;6.43;;;3.37;;
6791;SDS011;3433;48.730;9.108;2022-12-20T11:16:08;5.40;;;2.97;;
6791;SDS011;3433;48.730;9.108;2022-12-20T11:19:28;4.83;;;3.53;;
6791;SDS011;3433;48.730;9.108;2022-12-20T11:22:24;5.57;;;3.60;;
6791;SDS011;3433;48.730;9.108;2022-12-20T11:25:24;5.93;;;2.57;;
6791;SDS011;3433;48.730;9.108;2022-12-20T11:28:30;3.50;;;2.20;;
6791;SDS011;3433;48.730;9.108;2022-12-20T11:31:30;2.90;;;2.50;;
6791;SDS011;3433;48.730;9.108;2022-12-20T11:34:29;4.43;;;3.20;;
6791;SDS011;3433;48.730;9.108;2022-12-20T11:37:25;3.17;;;2.87;;
6791;SDS011;3433;48.730;9.108;2022-12-20T11:40:20;3.87;;;2.90;;
6791;SDS011;3433;48.730;9.108;2022-12-20T11:43:19;5.20;;;3.07;;
6791;SDS011;3433;48.730;9.108;2022-12-20T11:46:22;3.37;;;2.93;;
6791;SDS011;3433;48.730;9.108;2022-12-20T11:49:21;5.47;;;2.80;;
6791;SDS011;3433;48.730;9.108;2022-12-20T11:52:32;4.10;;;2.83;;
6791;SDS011;3433;48.730;9.108;2022-12-20T11:55:25;4.20;;;2.60;;
6791;SDS011;3433;48.730;9.108;2022-12-20T11:58:15;4.07;;;2.73;;
6791;SDS011;3433;48.730;9.108;2022-12-20T12:01:07;3.97;;;2.60;;
6791;SDS011;3433;48.730;9.108;2022-12-20T12:04:02;5.47;;;2.73;;
6791;SDS011;3433;48.730;9.108;2022-12-20T12:06:56;4.90;;;2.93;;
6791;SDS011;3433;48.730;9.108;2022-12-20T12:09:49;3.20;;;2.57;;
6791;SDS011;3433;48.730;9.108;2022-12-20T12:12:42;4.20;;;2.83;;
6791;SDS011;3433;48.730;9.108;2022-12-20T12:15:32;4.40;;;3.50;;
6791;SDS011;3433;48.730;9.108;2022-12-20T12:18:24;2.67;;;2.47;;
6791;SDS011;3433;48.730;9.108;2022-12-20T12:21:18;4.77;;;2.90;;
6791;SDS011;3433;48.730;9.108;2022-12-20T12:24:10;2.90;;;2.60;;
6791;SDS011;3433;48.730;9.108;2022-12-20T12:27:06;5.13;;;2.90;;
6791;SDS011;3433;48.730;9.108;2022-12-20T12:30:00;4.10;;;2.57;;
6791;SDS011;3433;48.730;9.108;2022-12-20T12:32:48;3.70;;;2.80;;
6791;SDS011;3433;48.730;9.108;2022-12-20T12:39:23;4.40;;;2.60;;
6791;SDS011;3433;48.730;9.108;2022-12-20T12:42:57;3.07;;;2.33;;
6791;SDS011;3433;48.730;9.108;2022-12-20T12:45:59;4.47;;;2.40;;
6791;SDS011;3433;48.730;9.108;2022-12-20T12:48:50;2.83;;;2.00;;
6791;SDS011;3433;48.730;9.108;2022-12-20T12:51:42;7.47;;;2.83;;
6791;SDS011;3433;48.730;9.108;2022-12-20T12:54:38;3.73;;;2.57;;
6791;SDS011;3433;48.730;9.108;2022-12-20T12:57:28;4.27;;;2.57;;
6791;SDS011;3433;48.730;9.108;2022-12-20T13:00:48;5.03;;;3.07;;
6791;SDS011;3433;48.730;9.108;2022-12-20T13:03:38;2.57;;;2.30;;
6791;SDS011;3433;48.730;9.108;2022-12-20T13:13:46;3.60;;;2.20;;
6791;SDS011;3433;48.730;9.108;2022-12-20T13:16:33;5.63;;;2.80;;
6791;SDS011;3433;48.730;9.108;2022-12-20T13:19:29;3.40;;;1.97;;
6791;SDS011;3433;48.730;9.108;2022-12-20T13:22:20;3.13;;;2.10;;
6791;SDS011;3433;48.730;9.108;2022-12-20T13:31:31;4.20;;;2.30;;
6791;SDS011;3433;48.730;9.108;2022-12-20T13:34:35;3.37;;;2.70;;
6791;SDS011;3433;48.730;9.108;2022-12-20T13:37:24;5.30;;;2.80;;
6791;SDS011;3433;48.730;9.108;2022-12-20T13:40:15;3.30;;;2.67;;
6791;SDS011;3433;48.730;9.108;2022-12-20T13:43:09;7.43;;;2.67;;
6791;SDS011;3433;48.730;9.108;2022-12-20T13:46:12;4.43;;;2.80;;
6791;SDS011;3433;48.730;9.108;2022-12-20T13:49:07;2.93;;;2.60;;
6791;SDS011;3433;48.730;9.108;2022-12-20T13:52:15;4.63;;;3.20;;
6791;SDS011;3433;48.730;9.108;2022-12-20T13:55:15;4.03;;;2.63;;
6791;SDS011;3433;48.730;9.108;2022-12-20T13:58:10;3.40;;;2.80;;
6791;SDS011;3433;48.730;9.108;2022-12-20T14:01:03;2.33;;;2.10;;
6791;SDS011;3433;48.730;9.108;2022-12-20T14:03:53;3.03;;;2.30;;
6791;SDS011;3433;48.730;9.108;2022-12-20T14:06:41;5.00;;;2.60;;
6791;SDS011;3433;48.730;9.108;2022-12-20T14:09:29;2.63;;;2.20;;
6791;SDS011;3433;48.730;9.108;2022-12-20T14:12:19;3.90;;;1.87;;
6791;SDS011;3433;48.730;9.108;2022-12-20T14:15:18;3.93;;;2.67;;
6791;SDS011;3433;48.730;9.108;2022-12-20T14:18:15;3.30;;;2.87;;
6791;SDS011;3433;48.730;9.108;2022-12-20T14:21:05;6.40;;;2.90;;
6791;SDS011;3433;48.730;9.108;2022-12-20T14:23:55;5.70;;;3.63;;
6791;SDS011;3433;48.730;9.108;2022-12-20T14:26:44;3.50;;;3.10;;
6791;SDS011;3433;48.730;9.108;2022-12-20T14:29:34;3.97;;;2.90;;
6791;SDS011;3433;48.730;9.108;2022-12-20T14:32:21;4.00;;;2.43;;
6791;SDS011;3433;48.730;9.108;2022-12-20T14:35:17;5.30;;;3.07;;
6791;SDS011;3433;48.730;9.108;2022-12-20T14:38:18;4.80;;;2.83;;
6791;SDS011;3433;48.730;9.108;2022-12-20T14:44:16;3.53;;;2.37;;
6791;SDS011;3433;48.730;9.108;2022-12-20T14:47:11;5.00;;;3.07;;
6791;SDS011;3433;48.730;9.108;2022-12-20T14:50:02;3.40;;;2.50;;
6791;SDS011;3433;48.730;9.108;2022-12-20T14:52:51;4.60;;;2.50;;
6791;SDS011;3433;48.730;9.108;2022-12-20T14:55:43;6.17;;;2.97;;
6791;SDS011;3433;48.730;9.108;2022-12-20T14:58:32;4.13;;;2.70;;
6791;SDS011;3433;48.730;9.108;2022-12-20T15:01:20;4.27;;;2.60;;
6791;SDS011;3433;48.730;9.108;2022-12-20T15:04:21;3.60;;;2.93;;
6791;SDS011;3433;48.730;9.108;2022-12-20T15:10:15;2.83;;;2.63;;
6791;SDS011;3433;48.730;9.108;2022-12-20T15:13:06;9.33;;;3.20;;
6791;SDS011;3433;48.730;9.108;2022-12-20T15:15:58;5.40;;;2.93;;
6791;SDS011;3433;48.730;9.108;2022-12-20T15:18:46;16.83;;;4.23;;
6791;SDS011;3433;48.730;9.108;2022-12-20T15:21:34;8.50;;;3.70;;
6791;SDS011;3433;48.730;9.108;2022-12-20T15:24:25;5.20;;;2.60;;
6791;SDS011;3433;48.730;9.108;2022-12-20T15:27:13;4.33;;;2.97;;
6791;SDS011;3433;48.730;9.108;2022-12-20T15:30:04;3.93;;;2.60;;
6791;SDS011;3433;48.730;9.108;2022-12-20T15:32:52;3.90;;;2.80;;
6791;SDS011;3433;48.730;9.108;2022-12-20T15:35:39;6.23;;;2.70;;
6791;SDS011;3433;48.730;9.108;2022-12-20T15:38:27;3.60;;;2.53;;
6791;SDS011;3433;48.730;9.108;2022-12-20T15:41:16;3.03;;;2.50;;
6791;SDS011;3433;48.730;9.108;2022-12-20T15:44:06;6.93;;;3.47;;
6791;SDS011;3433;48.730;9.108;2022-12-20T15:46:59;4.77;;;3.10;;
6791;SDS011;3433;48.730;9.108;2022-12-20T15:49:47;10.17;;;3.00;;
6791;SDS011;3433;48.730;9.108;2022-12-20T15:52:34;6.90;;;3.20;;
6791;SDS011;3433;48.730;9.108;2022-12-20T15:55:21;6.10;;;3.97;;
6791;SDS011;3433;48.730;9.108;2022-12-20T15:58:08;4.00;;;2.97;;
6791;SDS011;3433;48.730;9.108;2022-12-20T16:00:57;5.07;;;3.17;;
6791;SDS011;3433;48.730;9.108;2022-12-20T16:03:48;4.37;;;2.97;;
6791;SDS011;3433;48.730;9.108;2022-12-20T16:06:35;3.23;;;2.90;;
6791;SDS011;3433;48.730;9.108;2022-12-20T16:09:22;4.77;;;3.03;;
6791;SDS011;3433;48.730;9.108;2022-12-20T16:12:12;4.50;;;3.07;;
6791;SDS011;3433;48.730;9.108;2022-12-20T16:15:00;4.60;;;3.27;;
6791;SDS011;3433;48.730;9.108;2022-12-20T16:17:49;3.93;;;3.00;;
6791;SDS011;3433;48.730;9.108;2022-12-20T16:20:37;5.30;;;3.43;;
6791;SDS011;3433;48.730;9.108;2022-12-20T16:23:25;5.57;;;3.50;;
6791;SDS011;3433;48.730;9.108;2022-12-20T16:26:12;6.93;;;4.13;;
6791;SDS011;3433;48.730;9.108;2022-12-20T16:29:00;8.40;;;4.43;;
6791;SDS011;3433;48.730;9.108;2022-12-20T16:31:47;7.00;;;4.27;;
6791;SDS011;3433;48.730;9.108;2022-12-20T16:34:35;7.00;;;4.47;;
6791;SDS011;3433;48.730;9.108;2022-12-20T16:37:24;10.20;;;5.07;;
6791;SDS011;3433;48.730;9.108;2022-12-20T16:40:11;10.07;;;5.70;;
6791;SDS011;3433;48.730;9.108;2022-12-20T16:43:00;9.67;;;5.63;;
6791;SDS011;3433;48.730;9.108;2022-12-20T16:45:47;8.10;;;4.90;;
6791;SDS011;3433;48.730;9.108;2022-12-20T16:48:34;7.40;;;5.30;;
6791;SDS011;3433;48.730;9.108;2022-12-20T16:51:23;5.83;;;4.13;;
6791;SDS011;3433;48.730;9.108;2022-12-20T16:54:14;6.23;;;3.50;;
6791;SDS011;3433;48.730;9.108;2022-12-20T16:57:07;8.83;;;3.40;;
6791;SDS011;3433;48.730;9.108;2022-12-20T16:59:55;7.37;;;4.47;;
6791;SDS011;3433;48.730;9.108;2022-12-20T17:02:42;4.80;;;3.77;;
6791;SDS011;3433;48.730;9.108;2022-12-20T17:05:31;5.73;;;3.73;;
6791;SDS011;3433;48.730;9.108;2022-12-20T17:08:20;5.70;;;3.17;;
6791;SDS011;3433;48.730;9.108;2022-12-20T17:11:11;6.77;;;4.07;;
6791;SDS011;3433;48.730;9.108;2022-12-20T17:14:00;4.33;;;3.30;;
6791;SDS011;3433;48.730;9.108;2022-12-20T17:16:47;3.50;;;3.07;;
6791;SDS011;3433;48.730;9.108;2022-12-20T17:19:34;4.27;;;3.53;;
6791;SDS011;3433;48.730;9.108;2022-12-20T17:22:22;5.30;;;3.10;;
6791;SDS011;3433;48.730;9.108;2022-12-20T17:25:14;4.97;;;3.23;;
6791;SDS011;3433;48.730;9.108;2022-12-20T17:28:06;3.97;;;2.90;;
6791;SDS011;3433;48.730;9.108;2022-12-20T17:30:54;4.63;;;3.40;;
6791;SDS011;3433;48.730;9.108;2022-12-20T17:33:41;4.00;;;2.80;;
6791;SDS011;3433;48.730;9.108;2022-12-20T17:36:28;3.63;;;2.47;;
6791;SDS011;3433;48.730;9.108;2022-12-20T17:39:16;3.30;;;2.70;;
6791;SDS011;3433;48.730;9.108;2022-12-20T17:42:04;5.57;;;3.13;;
6791;SDS011;3433;48.730;9.108;2022-12-20T17:44:52;5.40;;;3.67;;
6791;SDS011;3433;48.730;9.108;2022-12-20T17:47:39;4.13;;;3.10;;
6791;SDS011;3433;48.730;9.108;2022-12-20T17:50:27;4.33;;;3.73;;
6791;SDS011;3433;48.730;9.108;2022-12-20T17:53:14;5.33;;;4.17;;
6791;SDS011;3433;48.730;9.108;2022-12-20T17:56:01;6.30;;;3.97;;
6791;SDS011;3433;48.730;9.108;2022-12-20T17:58:48;5.00;;;3.83;;
6791;SDS011;3433;48.730;9.108;2022-12-20T18:01:38;6.60;;;4.73;;